createdAt,value
2022-10-20T00:00:52.583Z,16.40
2022-10-20T00:03:58.750Z,16.33
2022-10-20T00:07:00.958Z,16.38
2022-10-20T00:10:03.504Z,16.43
2022-10-20T00:13:06.172Z,16.37
2022-10-20T00:16:08.623Z,16.24
2022-10-20T00:19:12.004Z,16.19
2022-10-20T00:22:15.203Z,16.30
2022-10-20T00:25:17.269Z,16.33
2022-10-20T00:28:19.205Z,16.13
2022-10-20T00:31:23.002Z,16.17
2022-10-20T00:34:25.106Z,16.30
2022-10-20T00:37:27.096Z,16.14
2022-10-20T00:40:29.067Z,16.25
2022-10-20T00:43:56.569Z,16.26
2022-10-20T00:46:58.910Z,16.11
2022-10-20T00:50:06.447Z,16.17
2022-10-20T00:53:08.783Z,16.14
2022-10-20T00:56:11.562Z,16.06
2022-10-20T00:59:18.038Z,16.18
2022-10-20T01:02:20.459Z,16.09
2022-10-20T01:05:23.229Z,16.01
2022-10-20T01:08:29.037Z,15.89
2022-10-20T01:11:36.959Z,16.03
2022-10-20T01:14:47.987Z,15.96
2022-10-20T01:17:56.040Z,15.92
2022-10-20T01:21:21.494Z,15.73
2022-10-20T01:24:32.184Z,15.83
2022-10-20T01:27:42.064Z,15.78
2022-10-20T01:30:48.951Z,15.76
2022-10-20T01:34:06.540Z,15.63
2022-10-20T01:37:19.728Z,15.57
2022-10-20T01:40:53.295Z,15.66
2022-10-20T01:43:56.549Z,15.75
2022-10-20T01:47:00.368Z,15.53
2022-10-20T01:50:05.932Z,15.41
2022-10-20T01:53:08.162Z,15.68
2022-10-20T01:56:18.767Z,15.73
2022-10-20T01:59:35.622Z,15.59
2022-10-20T02:02:40.230Z,15.51
2022-10-20T02:06:07.503Z,15.60
2022-10-20T02:09:18.081Z,15.62
2022-10-20T02:12:27.962Z,15.53
2022-10-20T02:15:32.041Z,15.42
2022-10-20T02:18:40.142Z,15.46
2022-10-20T02:21:42.435Z,15.53
2022-10-20T02:24:45.151Z,15.38
2022-10-20T02:27:48.647Z,15.35
2022-10-20T02:30:51.537Z,15.31
2022-10-20T02:33:56.624Z,15.31
2022-10-20T02:36:59.499Z,15.29
2022-10-20T02:40:01.828Z,15.18
2022-10-20T02:43:03.888Z,15.18
2022-10-20T02:46:06.202Z,15.07
2022-10-20T02:49:08.329Z,15.06
2022-10-20T02:52:10.239Z,15.10
2022-10-20T02:55:12.420Z,15.17
2022-10-20T02:58:16.450Z,15.19
2022-10-20T03:01:18.474Z,15.05
2022-10-20T03:04:20.689Z,15.08
2022-10-20T03:07:22.776Z,15.02
2022-10-20T03:10:24.925Z,15.17
2022-10-20T03:13:27.056Z,15.13
2022-10-20T03:16:29.449Z,15.16
2022-10-20T03:19:31.547Z,15.16
2022-10-20T03:22:34.359Z,15.20
2022-10-20T03:25:36.336Z,15.23
2022-10-20T03:28:39.585Z,15.17
2022-10-20T03:31:41.691Z,15.11
2022-10-20T03:34:43.955Z,15.24
2022-10-20T03:37:45.909Z,15.14
2022-10-20T03:40:48.048Z,15.00
2022-10-20T03:43:50.167Z,15.49
2022-10-20T03:46:53.060Z,17.11
2022-10-20T03:49:55.219Z,18.43
2022-10-20T03:52:57.731Z,20.04
2022-10-20T03:56:00.791Z,20.37
2022-10-20T04:02:05.930Z,19.87
2022-10-20T04:05:10.930Z,20.28
2022-10-20T04:08:12.974Z,19.86
2022-10-20T04:11:15.405Z,19.74
2022-10-20T04:14:17.538Z,19.89
2022-10-20T04:17:20.025Z,20.89
2022-10-20T04:20:22.076Z,21.84
2022-10-20T04:23:24.057Z,21.90
2022-10-20T04:26:26.448Z,20.42
2022-10-20T04:29:28.655Z,21.04
2022-10-20T04:32:31.856Z,21.94
2022-10-20T04:35:34.123Z,21.43
2022-10-20T04:38:36.433Z,20.91
2022-10-20T04:41:38.811Z,20.44
2022-10-20T04:44:40.881Z,19.91
2022-10-20T04:47:43.019Z,19.92
2022-10-20T04:50:45.112Z,19.71
2022-10-20T04:53:47.841Z,19.74
2022-10-20T04:56:49.769Z,19.59
2022-10-20T04:59:51.751Z,19.58
2022-10-20T05:02:55.261Z,19.54
2022-10-20T05:06:09.505Z,19.35
2022-10-20T05:09:15.479Z,19.25
2022-10-20T05:12:17.953Z,19.00
2022-10-20T05:15:20.097Z,18.66
2022-10-20T05:18:22.136Z,18.63
2022-10-20T05:21:26.947Z,18.67
2022-10-20T05:24:30.195Z,18.50
2022-10-20T05:27:32.389Z,18.30
2022-10-20T05:30:36.021Z,18.22
2022-10-20T05:33:38.479Z,18.19
2022-10-20T05:36:40.730Z,18.05
2022-10-20T05:39:43.582Z,17.74
2022-10-20T05:42:45.710Z,17.68
2022-10-20T05:45:53.961Z,17.57
2022-10-20T05:48:58.989Z,17.40
2022-10-20T05:52:00.879Z,17.34
2022-10-20T05:55:04.346Z,17.33
2022-10-20T05:58:06.596Z,17.37
2022-10-20T06:01:11.296Z,17.18
2022-10-20T06:04:18.402Z,17.08
2022-10-20T06:07:20.450Z,16.93
2022-10-20T06:10:22.942Z,16.92
2022-10-20T06:13:24.981Z,16.91
2022-10-20T06:16:27.841Z,17.02
2022-10-20T06:19:29.858Z,16.96
2022-10-20T06:22:31.807Z,16.99
2022-10-20T06:25:33.837Z,17.04
2022-10-20T06:28:37.331Z,17.01
2022-10-20T06:31:44.929Z,17.04
2022-10-20T06:34:47.095Z,16.72
2022-10-20T06:37:49.091Z,16.64
2022-10-20T06:40:51.127Z,16.63
2022-10-20T06:43:58.436Z,16.80
2022-10-20T06:47:00.369Z,16.69
2022-10-20T06:50:02.548Z,16.82
2022-10-20T06:53:04.575Z,16.77
2022-10-20T06:56:09.412Z,16.81
2022-10-20T06:59:11.861Z,16.88
2022-10-20T07:02:14.159Z,16.66
2022-10-20T07:05:16.386Z,16.80
2022-10-20T07:08:18.427Z,16.59
2022-10-20T07:11:22.204Z,16.50
2022-10-20T07:14:24.311Z,16.58
2022-10-20T07:17:26.609Z,16.46
2022-10-20T07:20:28.751Z,16.51
2022-10-20T07:23:31.845Z,16.72
2022-10-20T07:26:36.534Z,16.77
2022-10-20T07:29:38.716Z,16.55
2022-10-20T07:32:40.772Z,17.06
2022-10-20T07:35:43.036Z,17.33
2022-10-20T07:38:45.886Z,17.60
2022-10-20T07:41:48.904Z,17.81
2022-10-20T07:44:51.935Z,17.35
2022-10-20T07:47:53.941Z,17.36
2022-10-20T07:51:34.669Z,17.30
2022-10-20T07:54:37.030Z,17.15
2022-10-20T07:57:39.100Z,17.06
2022-10-20T08:00:41.377Z,16.88
2022-10-20T08:03:43.484Z,16.79
2022-10-20T08:06:47.350Z,16.53
2022-10-20T08:09:49.471Z,16.82
2022-10-20T08:12:51.484Z,16.63
2022-10-20T08:15:55.545Z,16.40
2022-10-20T08:19:01.478Z,16.41
2022-10-20T08:22:04.032Z,16.47
2022-10-20T08:25:06.830Z,16.57
2022-10-20T08:28:10.979Z,16.68
2022-10-20T08:31:13.224Z,16.47
2022-10-20T08:34:15.458Z,16.54
2022-10-20T08:40:31.103Z,16.26
2022-10-20T08:43:38.118Z,16.12
2022-10-20T08:46:42.046Z,16.43
2022-10-20T08:49:46.124Z,16.49
2022-10-20T08:52:52.761Z,16.24
2022-10-20T08:55:55.753Z,16.50
2022-10-20T08:58:58.036Z,16.76
2022-10-20T09:02:00.784Z,17.10
2022-10-20T09:05:05.247Z,17.27
2022-10-20T09:08:08.018Z,17.49
2022-10-20T09:11:17.222Z,17.69
2022-10-20T09:14:19.517Z,17.74
2022-10-20T09:17:21.658Z,17.95
2022-10-20T09:20:39.225Z,18.02
2022-10-20T09:23:44.320Z,18.02
2022-10-20T09:27:04.743Z,18.06
2022-10-20T09:30:16.080Z,18.11
2022-10-20T09:33:34.098Z,18.12
2022-10-20T09:36:36.305Z,18.08
2022-10-20T09:39:51.373Z,18.09
2022-10-20T09:42:59.359Z,17.92
2022-10-20T09:46:06.967Z,17.88
2022-10-20T09:49:32.717Z,17.83
2022-10-20T09:52:47.963Z,17.71
2022-10-20T09:55:52.624Z,17.58
2022-10-20T09:58:56.595Z,17.55
2022-10-20T10:02:01.954Z,17.44
2022-10-20T10:05:20.971Z,17.70
2022-10-20T10:08:25.865Z,17.85
2022-10-20T10:11:37.071Z,17.95
2022-10-20T10:14:51.967Z,18.22
2022-10-20T10:17:55.337Z,18.14
2022-10-20T10:21:00.666Z,18.22
2022-10-20T10:24:05.241Z,18.28
2022-10-20T10:27:29.263Z,18.25
2022-10-20T10:30:33.815Z,18.14
2022-10-20T10:33:36.252Z,18.13
2022-10-20T10:36:38.756Z,18.21
2022-10-20T10:39:41.204Z,18.06
2022-10-20T10:43:11.729Z,17.99
2022-10-20T10:46:26.848Z,18.07
2022-10-20T10:49:46.880Z,18.09
2022-10-20T10:53:12.534Z,18.11
2022-10-20T10:56:33.641Z,18.14
2022-10-20T10:59:40.624Z,18.09
2022-10-20T11:02:45.280Z,18.08
2022-10-20T11:06:06.171Z,18.04
2022-10-20T11:09:27.793Z,17.88
2022-10-20T11:12:45.595Z,17.71
2022-10-20T11:15:56.561Z,17.76
2022-10-20T11:19:29.858Z,17.68
2022-10-20T11:22:40.658Z,17.75
2022-10-20T11:26:03.742Z,17.55
2022-10-20T11:29:23.267Z,17.60
2022-10-20T11:32:31.561Z,17.74
2022-10-20T11:35:36.416Z,17.96
2022-10-20T11:38:44.303Z,18.02
2022-10-20T11:41:53.134Z,18.21
2022-10-20T11:44:56.662Z,18.29
2022-10-20T11:48:40.200Z,18.32
2022-10-20T11:52:02.724Z,18.09
2022-10-20T11:55:13.058Z,18.29
2022-10-20T11:58:55.402Z,18.15
2022-10-20T12:02:34.381Z,18.17
2022-10-20T12:05:58.176Z,18.21
2022-10-20T12:09:14.729Z,18.26
2022-10-20T12:12:31.845Z,18.35
2022-10-20T12:15:33.946Z,18.13
2022-10-20T12:18:37.228Z,18.14
2022-10-20T12:22:00.152Z,18.26
2022-10-20T12:25:02.715Z,18.21
2022-10-20T12:28:20.098Z,18.25
2022-10-20T12:31:22.568Z,18.24
2022-10-20T12:34:24.680Z,18.23
2022-10-20T12:37:34.782Z,18.07
2022-10-20T12:40:50.033Z,18.09
2022-10-20T12:43:54.853Z,17.91
2022-10-20T12:47:08.542Z,17.88
2022-10-20T12:50:28.862Z,17.84
2022-10-20T12:53:31.526Z,17.76
2022-10-20T12:56:38.635Z,17.73
2022-10-20T12:59:41.004Z,17.74
2022-10-20T13:02:49.845Z,17.99
2022-10-20T13:05:52.051Z,18.08
2022-10-20T13:09:03.292Z,18.27
2022-10-20T13:12:29.118Z,18.35
2022-10-20T13:15:44.517Z,18.80
2022-10-20T13:18:50.947Z,18.98
2022-10-20T13:21:53.379Z,19.13
2022-10-20T13:24:59.396Z,18.88
2022-10-20T13:28:26.441Z,18.93
2022-10-20T13:31:37.431Z,19.14
2022-10-20T13:35:05.011Z,18.95
2022-10-20T13:38:18.197Z,18.96
2022-10-20T13:41:25.956Z,18.74
2022-10-20T13:44:46.006Z,18.68
2022-10-20T13:48:02.974Z,18.73
2022-10-20T13:51:15.904Z,18.62
2022-10-20T13:54:27.487Z,18.33
2022-10-20T13:57:35.036Z,18.45
2022-10-20T14:00:39.467Z,18.47
2022-10-20T14:03:46.441Z,18.53
2022-10-20T14:06:48.471Z,18.29
2022-10-20T14:09:58.394Z,18.17
2022-10-20T14:13:02.374Z,18.00
2022-10-20T14:16:08.651Z,17.91
2022-10-20T14:19:13.664Z,17.96
2022-10-20T14:22:15.953Z,17.98
2022-10-20T14:25:18.250Z,18.09
2022-10-20T14:28:21.576Z,18.16
2022-10-20T14:31:25.008Z,18.08
2022-10-20T14:34:34.973Z,17.93
2022-10-20T14:37:45.939Z,17.82
2022-10-20T14:41:09.004Z,17.95
2022-10-20T14:44:31.120Z,17.72
2022-10-20T14:47:42.660Z,17.81
2022-10-20T14:50:44.912Z,17.83
2022-10-20T14:53:47.260Z,17.76
2022-10-20T14:56:52.428Z,17.60
2022-10-20T15:00:25.570Z,17.65
2022-10-20T15:03:27.708Z,17.31
2022-10-20T15:06:30.075Z,17.46
2022-10-20T15:09:40.000Z,17.29
2022-10-20T15:12:46.337Z,17.30
2022-10-20T15:15:49.519Z,17.19
2022-10-20T15:19:11.843Z,17.12
2022-10-20T15:22:16.242Z,17.04
2022-10-20T15:25:18.272Z,16.81
2022-10-20T15:28:25.816Z,16.99
2022-10-20T15:31:30.499Z,17.04
2022-10-20T15:34:32.811Z,17.15
2022-10-20T15:37:36.562Z,16.98
2022-10-20T15:40:38.925Z,16.84
2022-10-20T15:43:41.173Z,16.70
2022-10-20T15:46:45.182Z,16.69
2022-10-20T15:49:47.333Z,16.57
2022-10-20T15:52:49.366Z,16.52
2022-10-20T15:55:51.388Z,16.38
2022-10-20T15:58:53.601Z,16.15
2022-10-20T16:01:55.682Z,16.48
2022-10-20T16:04:57.742Z,16.55
2022-10-20T16:08:01.491Z,16.39
2022-10-20T16:11:05.336Z,16.50
2022-10-20T16:14:07.502Z,16.42
2022-10-20T16:17:09.555Z,16.41
2022-10-20T16:20:11.947Z,16.33
2022-10-20T16:23:14.080Z,16.47
2022-10-20T16:26:16.097Z,16.44
2022-10-20T16:29:18.322Z,16.31
2022-10-20T16:32:20.393Z,16.28
2022-10-20T16:35:22.792Z,16.27
2022-10-20T16:38:24.835Z,16.17
2022-10-20T16:41:26.982Z,16.09
2022-10-20T16:44:30.679Z,16.31
2022-10-20T16:47:32.970Z,16.68
2022-10-20T16:50:44.667Z,17.54
2022-10-20T16:53:46.719Z,17.93
2022-10-20T16:56:49.520Z,18.15
2022-10-20T16:59:51.774Z,18.32
2022-10-20T17:02:56.485Z,18.70
2022-10-20T17:06:01.102Z,20.35
2022-10-20T17:09:05.087Z,19.78
2022-10-20T17:12:07.421Z,19.34
2022-10-20T17:15:11.830Z,20.13
2022-10-20T17:18:14.459Z,21.30
2022-10-20T17:21:27.711Z,21.38
2022-10-20T17:24:31.420Z,20.53
2022-10-20T17:28:01.260Z,19.87
2022-10-20T17:31:29.764Z,21.71
2022-10-20T17:34:32.660Z,20.53
2022-10-20T17:37:34.712Z,19.68
2022-10-20T17:40:38.214Z,20.03
2022-10-20T17:43:42.951Z,21.22
2022-10-20T17:46:47.547Z,21.20
2022-10-20T17:49:49.623Z,20.27
2022-10-20T17:52:51.749Z,19.62
2022-10-20T17:55:53.941Z,20.96
2022-10-20T17:58:56.883Z,21.26
2022-10-20T18:01:59.100Z,21.24
2022-10-20T18:05:01.602Z,20.88
2022-10-20T18:08:03.915Z,20.33
2022-10-20T18:11:23.860Z,19.91
2022-10-20T18:14:27.868Z,19.36
2022-10-20T18:17:35.417Z,19.02
2022-10-20T18:20:41.210Z,18.85
2022-10-20T18:23:46.132Z,18.49
2022-10-20T18:30:37.244Z,18.08
2022-10-20T18:33:53.721Z,17.80
2022-10-20T18:36:58.244Z,17.74
2022-10-20T18:40:01.050Z,17.60
2022-10-20T18:43:03.278Z,17.44
2022-10-20T18:46:06.776Z,17.26
2022-10-20T18:49:11.693Z,17.03
2022-10-20T18:52:27.256Z,16.75
2022-10-20T18:55:40.791Z,16.82
2022-10-20T19:03:33.420Z,16.56
2022-10-20T19:06:44.247Z,16.53
2022-10-20T19:09:46.260Z,16.49
2022-10-20T19:12:48.294Z,16.37
2022-10-20T19:15:50.324Z,16.27
2022-10-20T19:18:55.553Z,16.17
2022-10-20T19:21:57.681Z,16.12
2022-10-20T19:24:59.998Z,15.85
2022-10-20T19:28:02.161Z,15.86
2022-10-20T19:31:20.615Z,15.76
2022-10-20T19:34:29.461Z,15.68
2022-10-20T19:37:31.578Z,15.70
2022-10-20T19:40:33.550Z,15.59
2022-10-20T19:43:36.887Z,15.57
2022-10-20T19:46:40.436Z,15.47
2022-10-20T19:49:42.545Z,15.46
2022-10-20T19:52:44.574Z,15.44
2022-10-20T19:55:48.107Z,15.35
2022-10-20T19:58:50.313Z,15.40
2022-10-20T20:01:52.919Z,15.26
2022-10-20T20:04:55.003Z,15.23
2022-10-20T20:07:57.089Z,15.17
2022-10-20T20:11:01.302Z,15.15
2022-10-20T20:14:17.763Z,15.26
2022-10-20T20:17:19.826Z,15.24
2022-10-20T20:20:22.136Z,15.31
2022-10-20T20:23:34.705Z,15.25
2022-10-20T20:26:44.738Z,15.23
2022-10-20T20:29:46.783Z,15.27
2022-10-20T20:32:52.117Z,15.08
2022-10-20T20:36:01.505Z,15.22
2022-10-20T20:39:03.745Z,15.12
2022-10-20T20:42:05.957Z,15.09
2022-10-20T20:45:08.464Z,15.08
2022-10-20T20:48:10.456Z,14.97
2022-10-20T20:51:13.983Z,14.81
2022-10-20T20:54:16.043Z,14.81
2022-10-20T20:57:18.042Z,14.76
2022-10-20T21:00:20.000Z,14.80
2022-10-20T21:03:22.056Z,14.75
2022-10-20T21:06:33.132Z,14.72
2022-10-20T21:09:36.442Z,14.79
2022-10-20T21:12:38.667Z,14.77
2022-10-20T21:15:40.818Z,14.76
2022-10-20T21:18:45.962Z,14.75
2022-10-20T21:21:57.578Z,14.53
2022-10-20T21:24:59.690Z,14.81
2022-10-20T21:28:01.798Z,14.78
2022-10-20T21:31:12.625Z,14.70
2022-10-20T21:34:15.379Z,14.54
2022-10-20T21:37:17.529Z,14.65
2022-10-20T21:40:19.675Z,14.44
2022-10-20T21:43:21.726Z,14.54
2022-10-20T21:46:26.527Z,14.45
2022-10-20T21:49:28.513Z,14.35
2022-10-20T21:52:30.824Z,14.36
2022-10-20T21:55:34.680Z,14.21
2022-10-20T21:58:38.355Z,14.26
2022-10-20T22:01:40.301Z,14.04
2022-10-20T22:04:42.277Z,14.33
2022-10-20T22:07:44.274Z,14.26
2022-10-20T22:10:46.356Z,14.16
2022-10-20T22:13:49.018Z,14.09
2022-10-20T22:16:51.791Z,14.07
2022-10-20T22:19:53.861Z,13.90
2022-10-20T22:22:55.819Z,13.49
2022-10-20T22:25:58.042Z,13.91
2022-10-20T22:29:01.366Z,14.04
2022-10-20T22:32:03.540Z,13.95
2022-10-20T22:35:06.061Z,13.87
2022-10-20T22:38:08.041Z,13.97
2022-10-20T22:41:11.016Z,13.80
2022-10-20T22:44:13.039Z,13.79
2022-10-20T22:47:15.058Z,13.78
2022-10-20T22:50:17.305Z,13.56
2022-10-20T22:53:19.466Z,13.75
2022-10-20T22:56:23.209Z,13.73
2022-10-20T22:59:25.186Z,13.58
2022-10-20T23:02:27.218Z,13.62
2022-10-20T23:05:29.211Z,13.53
2022-10-20T23:08:32.710Z,13.45
2022-10-20T23:11:35.689Z,13.18
2022-10-20T23:14:37.678Z,13.18
2022-10-20T23:17:39.967Z,13.12
2022-10-20T23:20:42.133Z,13.13
2022-10-20T23:23:45.505Z,13.06
2022-10-20T23:26:47.473Z,12.99
2022-10-20T23:29:49.470Z,13.10
2022-10-20T23:32:51.500Z,13.07
2022-10-20T23:35:53.604Z,13.09
2022-10-20T23:38:55.586Z,12.99
2022-10-20T23:41:57.604Z,12.89
2022-10-20T23:44:59.915Z,12.80
2022-10-20T23:48:01.920Z,12.55
2022-10-20T23:51:04.966Z,12.58
2022-10-20T23:54:07.146Z,12.34
2022-10-20T23:57:09.253Z,12.43
